createdAt,value
2022-11-17T05:16:04.815Z,5.80
2022-11-17T05:18:31.235Z,5.77
2022-11-17T05:21:10.054Z,5.75
2022-11-17T05:23:58.391Z,5.79
2022-11-17T05:26:35.220Z,5.73
2022-11-17T05:29:07.524Z,5.84
2022-11-17T05:31:40.063Z,5.80
2022-11-17T05:34:12.703Z,5.67
2022-11-17T05:36:52.154Z,5.59
2022-11-17T05:39:38.429Z,5.65
2022-11-17T05:42:16.221Z,5.61
2022-11-17T05:44:42.756Z,5.58
2022-11-17T05:48:03.343Z,5.32
2022-11-17T05:50:30.052Z,5.17
2022-11-17T05:53:18.216Z,5.26
2022-11-17T05:56:51.826Z,5.46
2022-11-17T05:59:59.649Z,5.39
2022-11-17T06:02:38.539Z,5.59
2022-11-17T06:05:41.516Z,5.44
2022-11-17T06:08:10.779Z,5.32
2022-11-17T06:10:39.098Z,5.44
2022-11-17T06:13:31.263Z,5.61
2022-11-17T06:16:07.850Z,5.70
2022-11-17T06:18:49.231Z,5.67
2022-11-17T06:21:18.469Z,5.70
2022-11-17T06:23:48.860Z,5.78
2022-11-17T06:26:19.678Z,5.76
2022-11-17T06:28:52.061Z,5.79
2022-11-17T06:31:28.190Z,5.74
2022-11-17T06:33:55.109Z,5.79
2022-11-17T06:36:21.974Z,5.82
2022-11-17T06:38:48.906Z,5.89
2022-11-17T06:41:15.499Z,5.86
2022-11-17T06:43:42.237Z,5.85
2022-11-17T06:46:08.863Z,5.86
2022-11-17T06:48:36.186Z,5.92
2022-11-17T06:51:05.155Z,5.92
2022-11-17T06:54:23.875Z,5.96
2022-11-17T06:56:51.492Z,5.98
2022-11-17T06:59:18.053Z,5.97
2022-11-17T07:01:48.288Z,5.84
2022-11-17T07:07:28.445Z,5.54
2022-11-17T07:14:01.511Z,5.39
2022-11-17T07:16:47.596Z,5.36
2022-11-17T07:19:34.686Z,5.45
2022-11-17T07:22:04.123Z,5.44
2022-11-17T07:24:45.477Z,5.43
2022-11-17T07:27:22.546Z,5.44
2022-11-17T07:30:49.266Z,5.62
2022-11-17T07:37:22.159Z,5.93
2022-11-17T07:40:03.087Z,5.76
2022-11-17T07:45:51.327Z,5.64
2022-11-17T07:48:19.581Z,6.03
2022-11-17T07:50:46.261Z,5.97
2022-11-17T07:53:36.152Z,5.99
2022-11-17T07:56:07.911Z,6.09
2022-11-17T07:58:35.031Z,5.96
2022-11-17T08:03:01.708Z,6.20
2022-11-17T08:05:53.382Z,6.07
2022-11-17T08:25:00.916Z,5.97
2022-11-17T08:32:39.306Z,6.04
2022-11-17T08:38:32.141Z,6.00
2022-11-17T08:41:29.250Z,6.04
2022-11-17T08:44:01.308Z,5.99
2022-11-17T08:47:40.957Z,6.09
2022-11-17T08:58:12.039Z,6.31
2022-11-17T09:05:13.999Z,6.42
2022-11-17T09:11:11.235Z,6.46
2022-11-17T09:13:42.274Z,6.47
2022-11-17T09:16:25.839Z,6.39
2022-11-17T09:19:19.518Z,6.35
2022-11-17T09:21:46.114Z,6.31
2022-11-17T09:24:12.637Z,6.36
2022-11-17T09:26:41.596Z,6.32
2022-11-17T09:29:10.337Z,6.46
2022-11-17T09:31:37.313Z,6.55
2022-11-17T09:34:06.066Z,6.53
2022-11-17T09:36:50.843Z,6.45
2022-11-17T09:39:17.378Z,6.63
2022-11-17T09:41:46.928Z,6.82
2022-11-17T09:44:31.368Z,6.61
2022-11-17T09:47:34.968Z,6.48
2022-11-17T09:50:13.611Z,6.70
2022-11-17T09:53:12.854Z,6.60
2022-11-17T09:55:45.420Z,6.69
2022-11-17T09:58:26.347Z,6.76
2022-11-17T10:00:57.121Z,6.86
2022-11-17T10:03:59.109Z,6.81
2022-11-17T10:06:28.869Z,6.86
2022-11-17T10:09:00.826Z,6.67
2022-11-17T10:11:36.241Z,6.65
2022-11-17T10:14:22.278Z,6.81
2022-11-17T10:16:57.027Z,7.00
2022-11-17T10:19:43.894Z,7.01
2022-11-17T10:22:36.917Z,7.15
2022-11-17T10:25:20.228Z,7.47
2022-11-17T10:27:53.245Z,7.71
2022-11-17T10:30:19.817Z,7.78
2022-11-17T10:32:54.990Z,7.88
2022-11-17T10:35:27.425Z,7.95
2022-11-17T10:38:10.691Z,7.39
2022-11-17T10:40:40.328Z,7.32
2022-11-17T10:43:13.155Z,7.24
2022-11-17T10:45:54.909Z,7.31
2022-11-17T10:48:29.653Z,7.39
2022-11-17T10:51:20.656Z,7.38
2022-11-17T10:54:19.416Z,7.51
2022-11-17T10:56:56.228Z,7.57
2022-11-17T10:59:32.217Z,7.83
2022-11-17T11:02:29.712Z,7.79
2022-11-17T11:05:16.921Z,8.08
2022-11-17T11:07:43.805Z,8.41
2022-11-17T11:10:22.087Z,8.04
2022-11-17T11:13:06.580Z,7.92
2022-11-17T11:15:39.128Z,8.06
2022-11-17T11:18:14.935Z,7.81
2022-11-17T11:21:18.095Z,7.77
2022-11-17T11:24:24.561Z,7.65
2022-11-17T11:27:11.421Z,7.69
2022-11-17T11:30:04.281Z,7.76
2022-11-17T11:33:12.590Z,7.70
2022-11-17T11:35:56.906Z,7.76
2022-11-17T11:38:42.463Z,7.50
2022-11-17T11:41:39.274Z,7.56
2022-11-17T11:44:41.065Z,7.49
2022-11-17T11:47:30.764Z,7.82
2022-11-17T11:50:09.947Z,7.43
2022-11-17T11:52:40.510Z,7.43
2022-11-17T11:55:20.897Z,7.47
2022-11-17T11:58:06.197Z,7.46
2022-11-17T12:00:34.214Z,7.93
2022-11-17T12:03:21.686Z,8.47
2022-11-17T12:06:21.569Z,9.09
2022-11-17T12:09:20.261Z,10.05
2022-11-17T12:12:53.820Z,9.41
2022-11-17T12:15:23.864Z,9.06
2022-11-17T12:18:21.872Z,8.57
2022-11-17T12:21:21.637Z,8.40
2022-11-17T12:23:55.229Z,8.39
2022-11-17T12:26:25.499Z,9.03
2022-11-17T12:29:22.162Z,9.10
2022-11-17T12:31:50.617Z,9.32
2022-11-17T12:34:20.199Z,9.32
2022-11-17T12:37:15.888Z,9.19
2022-11-17T12:39:56.109Z,9.26
2022-11-17T12:42:23.103Z,9.41
2022-11-17T12:44:55.666Z,9.51
2022-11-17T12:47:24.818Z,8.97
2022-11-17T12:50:03.415Z,8.85
2022-11-17T12:52:40.436Z,8.76
2022-11-17T12:55:32.935Z,9.23
2022-11-17T12:58:18.743Z,10.17
2022-11-17T13:01:13.623Z,9.48
2022-11-17T13:04:06.476Z,9.38
2022-11-17T13:06:36.049Z,9.31
2022-11-17T13:09:30.045Z,9.76
2022-11-17T13:12:10.479Z,10.65
2022-11-17T13:14:52.795Z,11.70
2022-11-17T13:17:25.933Z,11.88
2022-11-17T13:20:18.787Z,9.60
2022-11-17T13:23:00.741Z,9.23
2022-11-17T13:25:27.232Z,9.18
2022-11-17T13:27:57.343Z,9.22
2022-11-17T13:30:31.606Z,8.65
2022-11-17T13:33:01.588Z,8.48
2022-11-17T13:35:31.457Z,8.54
2022-11-17T13:38:23.185Z,8.32
2022-11-17T13:40:52.452Z,8.17
2022-11-17T13:43:26.134Z,8.12
2022-11-17T13:45:56.102Z,7.85
2022-11-17T13:48:36.516Z,7.99
2022-11-17T13:51:22.371Z,7.97
2022-11-17T13:54:06.986Z,7.88
2022-11-17T13:56:38.971Z,7.85
2022-11-17T13:59:26.555Z,7.70
2022-11-17T14:02:29.868Z,7.62
2022-11-17T14:05:13.284Z,7.72
2022-11-17T14:07:42.859Z,7.73
2022-11-17T14:10:13.417Z,7.70
2022-11-17T14:12:41.454Z,7.51
2022-11-17T14:15:26.962Z,7.50
2022-11-17T14:17:56.345Z,7.62
2022-11-17T14:20:25.950Z,7.50
2022-11-17T14:23:08.563Z,7.75
2022-11-17T14:25:43.224Z,7.76
2022-11-17T14:28:16.848Z,7.61
2022-11-17T14:30:51.254Z,7.58
2022-11-17T14:33:22.879Z,7.60
2022-11-17T14:36:00.224Z,7.63
2022-11-17T14:38:26.836Z,7.71
2022-11-17T14:40:53.695Z,7.71
2022-11-17T14:43:21.415Z,7.60
2022-11-17T14:45:48.862Z,7.47
2022-11-17T14:48:19.543Z,7.10
2022-11-17T14:50:59.367Z,6.60
2022-11-17T14:53:32.131Z,6.18
2022-11-17T14:56:25.776Z,27.36
2022-11-17T14:58:59.271Z,30.28
2022-11-17T15:01:32.444Z,32.87
2022-11-17T15:04:15.455Z,33.84
2022-11-17T15:06:49.704Z,34.12
2022-11-17T15:09:21.335Z,33.00
2022-11-17T15:12:15.123Z,32.26
2022-11-17T15:14:47.107Z,31.79
2022-11-17T15:17:14.778Z,30.74
2022-11-17T15:19:41.725Z,30.40
2022-11-17T15:22:09.329Z,29.39
2022-11-17T15:24:35.758Z,29.36
2022-11-17T15:27:02.154Z,31.06
2022-11-17T15:29:29.823Z,29.13
2022-11-17T15:32:51.029Z,29.94
2022-11-17T15:35:17.564Z,30.32
2022-11-17T15:37:44.097Z,31.00
2022-11-17T15:40:13.963Z,30.79
2022-11-17T15:42:42.961Z,31.78
2022-11-17T15:45:09.781Z,31.88
2022-11-17T15:47:36.252Z,29.61
2022-11-17T15:50:02.731Z,30.03
2022-11-17T15:52:56.563Z,30.18
2022-11-17T15:55:20.200Z,29.41
2022-11-17T15:57:46.740Z,29.06
2022-11-17T16:00:14.472Z,29.68
2022-11-17T16:02:41.490Z,29.95
2022-11-17T16:05:08.989Z,30.32
2022-11-17T16:07:35.634Z,30.66
2022-11-17T16:10:03.686Z,29.50
2022-11-17T16:12:30.211Z,29.23
2022-11-17T16:14:56.733Z,28.71
2022-11-17T16:17:23.211Z,28.67
2022-11-17T16:19:49.732Z,28.35
2022-11-17T16:22:16.191Z,26.43
2022-11-17T16:24:42.729Z,27.58
2022-11-17T16:27:12.176Z,27.45
2022-11-17T16:29:39.967Z,27.22
2022-11-17T16:32:06.428Z,28.59
2022-11-17T16:34:32.972Z,29.11
2022-11-17T16:36:59.417Z,28.93
2022-11-17T16:39:25.873Z,30.93
2022-11-17T16:41:53.005Z,30.02
2022-11-17T16:44:20.196Z,32.20
2022-11-17T16:46:48.625Z,32.73
2022-11-17T16:49:17.302Z,32.77
2022-11-17T16:52:11.150Z,35.49
2022-11-17T16:54:37.697Z,35.30
2022-11-17T16:57:04.203Z,35.32
2022-11-17T16:59:31.018Z,35.20
2022-11-17T17:01:57.488Z,34.49
2022-11-17T17:04:23.914Z,34.78
2022-11-17T17:06:50.487Z,34.70
2022-11-17T17:09:19.506Z,35.01
2022-11-17T17:11:48.396Z,34.78
2022-11-17T17:14:15.525Z,34.65
2022-11-17T17:16:43.206Z,34.86
2022-11-17T17:19:11.639Z,35.08
2022-11-17T17:21:39.400Z,34.93
2022-11-17T17:24:06.592Z,34.61
2022-11-17T17:26:34.075Z,32.41
2022-11-17T17:29:01.905Z,33.16
2022-11-17T17:31:34.078Z,30.68
2022-11-17T17:34:00.980Z,31.57
2022-11-17T17:36:28.195Z,31.35
2022-11-17T17:38:56.557Z,29.91
2022-11-17T17:41:29.270Z,30.01
2022-11-17T17:44:06.535Z,28.91
2022-11-17T17:46:38.481Z,30.30
2022-11-17T17:49:05.702Z,31.03
2022-11-17T17:51:32.188Z,31.37
2022-11-17T17:54:00.971Z,31.06
2022-11-17T17:56:28.163Z,30.62
2022-11-17T17:58:55.314Z,30.56
2022-11-17T18:01:27.674Z,30.43
2022-11-17T18:04:04.306Z,29.67
2022-11-17T18:06:35.978Z,29.64
2022-11-17T18:09:03.539Z,29.58
2022-11-17T18:11:30.011Z,29.05
2022-11-17T18:13:56.465Z,29.03
2022-11-17T18:16:26.712Z,29.46
2022-11-17T18:18:59.289Z,28.96
2022-11-17T18:21:26.882Z,29.35
2022-11-17T18:23:54.279Z,30.46
2022-11-17T18:26:22.643Z,30.68
2022-11-17T18:29:06.273Z,30.50
2022-11-17T18:31:39.443Z,30.69
2022-11-17T18:34:15.552Z,30.79
2022-11-17T18:36:43.749Z,30.90
2022-11-17T18:39:15.169Z,31.10
2022-11-17T18:41:42.260Z,30.96
2022-11-17T18:44:19.661Z,30.83
2022-11-17T18:46:49.612Z,30.83
2022-11-17T18:49:16.977Z,30.94
2022-11-17T18:52:09.767Z,31.08
2022-11-17T18:54:36.405Z,30.89
2022-11-17T18:57:03.059Z,30.76
2022-11-17T18:59:29.779Z,30.70
2022-11-17T19:02:47.573Z,30.80
2022-11-17T19:05:14.335Z,30.23
2022-11-17T19:07:40.981Z,29.68
2022-11-17T19:10:08.065Z,29.83
2022-11-17T19:13:00.342Z,30.07
2022-11-17T19:15:27.108Z,29.92
2022-11-17T19:17:53.602Z,29.88
2022-11-17T19:20:25.801Z,29.76
2022-11-17T19:22:52.392Z,29.86
2022-11-17T19:25:18.878Z,29.99
2022-11-17T19:27:45.359Z,29.87
2022-11-17T19:30:12.082Z,30.06
2022-11-17T19:32:38.565Z,30.03
2022-11-17T19:35:14.647Z,30.32
2022-11-17T19:37:43.645Z,30.34
2022-11-17T19:40:10.949Z,29.94
2022-11-17T19:43:44.889Z,30.27
2022-11-17T19:46:22.456Z,30.21
2022-11-17T19:48:54.746Z,30.08
2022-11-17T19:51:26.604Z,29.90
2022-11-17T19:54:45.188Z,29.87
2022-11-17T19:57:11.880Z,29.91
2022-11-17T19:59:38.542Z,30.17
2022-11-17T20:02:05.247Z,29.57
2022-11-17T20:04:35.023Z,30.19
2022-11-17T20:07:01.616Z,30.10
2022-11-17T20:09:28.130Z,30.17
2022-11-17T20:11:54.690Z,29.92
2022-11-17T20:14:21.282Z,29.74
2022-11-17T20:16:49.059Z,29.61
2022-11-17T20:19:15.881Z,29.94
2022-11-17T20:21:42.680Z,29.77
2022-11-17T20:24:09.158Z,29.83
2022-11-17T20:26:36.340Z,29.67
2022-11-17T20:29:03.186Z,29.69
2022-11-17T20:31:32.438Z,29.78
2022-11-17T20:34:00.903Z,29.35
2022-11-17T20:36:30.057Z,29.44
2022-11-17T20:39:40.264Z,29.64
2022-11-17T20:42:07.184Z,29.71
2022-11-17T20:44:34.031Z,29.62
2022-11-17T20:47:00.618Z,29.59
2022-11-17T20:49:28.851Z,29.72
2022-11-17T20:51:55.464Z,30.02
2022-11-17T20:54:22.078Z,30.25
2022-11-17T20:56:48.652Z,30.15
2022-11-17T20:59:19.818Z,30.35
2022-11-17T21:01:49.515Z,30.55
2022-11-17T21:04:16.044Z,30.40
2022-11-17T21:06:42.598Z,30.30
2022-11-17T21:09:09.313Z,30.84
2022-11-17T21:11:54.484Z,30.95
2022-11-17T21:14:21.206Z,31.17
2022-11-17T21:16:49.786Z,31.07
2022-11-17T21:19:18.616Z,31.89
2022-11-17T21:21:45.880Z,32.05
2022-11-17T21:24:13.163Z,31.63
2022-11-17T21:26:40.575Z,31.95
2022-11-17T21:29:11.458Z,31.77
2022-11-17T21:31:38.455Z,31.89
2022-11-17T21:34:07.478Z,31.87
2022-11-17T21:36:38.895Z,31.69
2022-11-17T21:39:19.696Z,31.69
2022-11-17T21:41:46.364Z,31.44
2022-11-17T21:44:20.366Z,31.59
2022-11-17T21:49:39.766Z,31.90
2022-11-17T21:52:06.576Z,22.10
2022-11-17T21:54:33.277Z,17.07
2022-11-17T21:57:02.118Z,16.69
2022-11-17T21:59:41.024Z,16.50
2022-11-17T22:02:13.137Z,16.61
2022-11-17T22:04:39.930Z,16.56
2022-11-17T22:07:06.825Z,16.03
2022-11-17T22:09:34.313Z,15.72
2022-11-17T22:12:01.099Z,15.94
2022-11-17T22:14:32.089Z,15.77
2022-11-17T22:16:58.695Z,15.88
2022-11-17T22:19:29.053Z,15.43
2022-11-17T22:21:55.689Z,15.46
2022-11-17T22:24:22.681Z,15.59
2022-11-17T22:26:51.474Z,15.20
2022-11-17T22:29:20.902Z,15.31
2022-11-17T22:31:48.916Z,15.31
2022-11-17T22:34:16.501Z,15.64
2022-11-17T22:36:43.159Z,15.92
2022-11-17T22:39:09.687Z,15.93
2022-11-17T22:41:36.208Z,16.01
2022-11-17T22:44:02.880Z,16.02
2022-11-17T22:46:29.675Z,15.86
2022-11-17T22:48:56.632Z,15.76
2022-11-17T22:51:43.672Z,15.82
2022-11-17T22:54:10.239Z,15.87
2022-11-17T22:56:36.772Z,15.92
2022-11-17T22:59:03.575Z,15.96
